Time;durP1;ratioP1;P1;durP2;ratioP2;P2;SDS_P1;SDS_P2;PMS_P1;PMS_P2;Temp;Humidity;BMP_temperature;BMP_pressure;BME280_temperature;BME280_humidity;BME280_pressure;Samples;Min_cycle;Max_cycle;Signal;HPM_P1;HPM_P2
2020/12/27 00:00:35;;;;;;;1.60;1.30;;;4.80;98.20;;;;;;5002101;28;20485;-78
2020/12/27 00:03:02;;;;;;;1.70;1.40;;;4.70;98.20;;;;;;5002497;28;20489;-78
2020/12/27 00:05:28;;;;;;;1.67;1.40;;;4.70;98.20;;;;;;5006916;28;20466;-78
2020/12/27 00:07:56;;;;;;;1.63;1.30;;;4.70;98.20;;;;;;4999105;28;20493;-79
2020/12/27 00:10:22;;;;;;;1.60;1.30;;;4.70;98.20;;;;;;5000197;28;20511;-78
2020/12/27 00:12:49;;;;;;;1.67;1.40;;;4.70;98.20;;;;;;5000836;28;20520;-78
2020/12/27 00:15:15;;;;;;;1.60;1.30;;;4.70;98.20;;;;;;4999829;28;20489;-78
2020/12/27 00:17:43;;;;;;;1.60;1.30;;;4.70;98.20;;;;;;5001468;28;20462;-78
2020/12/27 00:20:09;;;;;;;1.70;1.40;;;4.70;98.20;;;;;;5002123;28;20989;-78
2020/12/27 00:22:36;;;;;;;1.60;1.30;;;4.70;98.20;;;;;;4998151;28;20461;-79
2020/12/27 00:25:04;;;;;;;1.60;1.30;;;4.70;98.20;;;;;;4998073;28;20516;-79
2020/12/27 00:27:30;;;;;;;1.67;1.37;;;4.60;98.20;;;;;;5004767;28;20795;-77
2020/12/27 00:29:57;;;;;;;1.60;1.27;;;4.60;98.20;;;;;;5006308;28;20477;-77
2020/12/27 00:32:27;;;;;;;1.60;1.30;;;4.60;98.20;;;;;;5002619;28;20457;-77
2020/12/27 00:34:54;;;;;;;1.60;1.30;;;4.60;98.20;;;;;;5004293;28;20446;-76
2020/12/27 00:37:21;;;;;;;1.63;1.40;;;4.60;98.20;;;;;;5005300;28;20973;-77
2020/12/27 00:39:48;;;;;;;1.70;1.40;;;4.60;98.20;;;;;;4999372;28;20462;-79
2020/12/27 00:42:15;;;;;;;1.63;1.30;;;4.60;98.20;;;;;;4998393;28;20476;-79
2020/12/27 00:44:41;;;;;;;1.60;1.30;;;4.60;98.20;;;;;;5000920;28;20481;-78
2020/12/27 00:47:08;;;;;;;1.60;1.30;;;4.50;98.20;;;;;;5001161;28;20520;-78
2020/12/27 00:49:35;;;;;;;1.70;1.40;;;4.50;98.20;;;;;;5000683;28;20994;-77
2020/12/27 00:52:01;;;;;;;1.67;1.40;;;4.50;98.20;;;;;;5000804;28;20832;-77
2020/12/27 00:54:27;;;;;;;1.70;1.40;;;4.50;98.20;;;;;;5001250;28;20485;-78
2020/12/27 00:56:54;;;;;;;1.67;1.40;;;4.50;98.20;;;;;;4993156;28;20498;-78
2020/12/27 00:59:21;;;;;;;1.60;1.30;;;4.50;98.20;;;;;;5004016;28;20492;-77
2020/12/27 01:01:53;;;;;;;1.67;1.40;;;4.50;98.20;;;;;;5003574;28;20489;-77
2020/12/27 01:04:19;;;;;;;1.60;1.40;;;4.50;98.20;;;;;;4987759;28;20547;-76
2020/12/27 01:06:45;;;;;;;1.63;1.40;;;4.40;98.20;;;;;;4995232;28;20470;-78
2020/12/27 01:09:12;;;;;;;1.70;1.40;;;4.40;98.20;;;;;;5002813;28;20462;-77
2020/12/27 01:11:38;;;;;;;1.63;1.30;;;4.40;98.20;;;;;;5003357;28;20458;-78
2020/12/27 01:14:05;;;;;;;1.70;1.50;;;4.40;98.20;;;;;;4995428;28;20521;-78
2020/12/27 01:16:32;;;;;;;1.63;1.33;;;4.40;98.20;;;;;;4998841;28;20489;-78
2020/12/27 01:18:58;;;;;;;1.60;1.30;;;4.40;98.20;;;;;;4996987;28;20469;-78
2020/12/27 01:21:26;;;;;;;1.60;1.37;;;4.40;98.20;;;;;;4997781;28;21002;-78
2020/12/27 01:23:52;;;;;;;1.60;1.40;;;4.40;98.20;;;;;;4994764;28;20486;-78
2020/12/27 01:26:27;;;;;;;1.60;1.30;;;4.40;98.20;;;;;;4999355;28;20477;-78
2020/12/27 01:28:54;;;;;;;1.67;1.40;;;4.40;98.20;;;;;;5002396;28;20465;-77
2020/12/27 01:31:21;;;;;;;1.70;1.50;;;4.40;98.20;;;;;;5000194;28;20496;-78
2020/12/27 01:33:48;;;;;;;1.63;1.40;;;4.40;98.20;;;;;;5005149;28;20512;-78
2020/12/27 01:36:14;;;;;;;1.63;1.40;;;4.40;98.20;;;;;;4993525;28;20454;-76
2020/12/27 01:38:41;;;;;;;1.60;1.30;;;4.40;98.20;;;;;;5000862;28;20458;-77
2020/12/27 01:41:07;;;;;;;1.70;1.33;;;4.50;98.20;;;;;;4998580;28;20867;-78
2020/12/27 01:43:34;;;;;;;1.60;1.40;;;4.50;98.20;;;;;;4999666;28;20489;-77
2020/12/27 01:46:00;;;;;;;1.60;1.30;;;4.50;98.20;;;;;;4995950;28;20940;-78
2020/12/27 01:48:27;;;;;;;1.70;1.40;;;4.40;98.20;;;;;;4993639;28;20478;-77
2020/12/27 01:50:55;;;;;;;1.63;1.30;;;4.40;98.20;;;;;;4996515;28;20496;-78
2020/12/27 01:53:23;;;;;;;1.60;1.40;;;4.40;98.20;;;;;;4997097;28;20494;-77
2020/12/27 01:55:50;;;;;;;1.63;1.30;;;4.40;98.20;;;;;;4996279;28;20470;-77
2020/12/27 01:58:20;;;;;;;1.70;1.50;;;4.40;98.20;;;;;;4998067;28;20492;-77
2020/12/27 02:00:47;;;;;;;1.60;1.30;;;4.40;98.20;;;;;;4993532;28;20486;-77
2020/12/27 02:03:14;;;;;;;1.60;1.30;;;4.40;98.20;;;;;;4997953;28;20485;-77
2020/12/27 02:05:43;;;;;;;2.93;2.70;;;4.40;98.20;;;;;;4997709;28;20462;-78
2020/12/27 02:08:11;;;;;;;1.60;1.30;;;4.40;98.20;;;;;;4997442;28;20501;-78
2020/12/27 02:10:38;;;;;;;1.60;1.30;;;4.40;98.20;;;;;;4992429;28;20475;-77
2020/12/27 02:13:05;;;;;;;1.70;1.40;;;4.40;98.20;;;;;;4997809;28;20512;-77
2020/12/27 02:15:31;;;;;;;1.60;1.30;;;4.40;98.20;;;;;;4994435;28;20530;-77
2020/12/27 02:17:57;;;;;;;1.67;1.40;;;4.40;98.20;;;;;;4998074;28;21133;-78
2020/12/27 02:20:24;;;;;;;1.63;1.40;;;4.50;98.20;;;;;;4998745;28;20540;-78
2020/12/27 02:22:50;;;;;;;1.63;1.30;;;4.50;98.20;;;;;;4995691;28;20489;-77
2020/12/27 02:25:18;;;;;;;1.63;1.40;;;4.50;98.20;;;;;;5000089;28;20489;-78
2020/12/27 02:27:44;;;;;;;1.60;1.30;;;4.50;98.20;;;;;;4998313;28;20508;-78
2020/12/27 02:30:11;;;;;;;1.67;1.40;;;4.50;98.20;;;;;;4998362;28;20520;-77
2020/12/27 02:32:37;;;;;;;1.70;1.50;;;4.50;98.20;;;;;;4999036;28;20468;-77
2020/12/27 02:35:05;;;;;;;1.67;1.40;;;4.60;98.20;;;;;;4997930;28;20462;-77
2020/12/27 02:37:31;;;;;;;1.60;1.30;;;4.60;98.20;;;;;;4995792;28;20489;-78
2020/12/27 02:39:58;;;;;;;1.60;1.30;;;4.60;98.20;;;;;;4992987;28;20453;-77
2020/12/27 02:42:25;;;;;;;1.60;1.30;;;4.60;98.20;;;;;;4990235;28;20474;-78
2020/12/27 02:45:10;;;;;;;1.60;1.30;;;4.60;98.20;;;;;;4985229;28;20528;-78
2020/12/27 02:47:40;;;;;;;1.70;1.40;;;4.60;98.20;;;;;;4990975;28;20528;-78
2020/12/27 02:50:09;;;;;;;1.60;1.33;;;4.70;98.20;;;;;;4991879;28;20501;-78
2020/12/27 02:52:35;;;;;;;1.60;1.37;;;4.70;98.20;;;;;;4999219;28;20468;-78
2020/12/27 02:55:09;;;;;;;1.60;1.20;;;4.70;98.20;;;;;;4999371;28;20461;-78
2020/12/27 02:57:36;;;;;;;1.70;1.43;;;4.70;98.20;;;;;;5005813;28;20524;-78
2020/12/27 03:00:05;;;;;;;1.70;1.40;;;4.70;98.20;;;;;;4998368;28;20462;-79
2020/12/27 03:02:31;;;;;;;1.60;1.40;;;4.70;98.20;;;;;;5004964;28;20493;-78
2020/12/27 03:04:58;;;;;;;1.63;1.40;;;4.70;98.20;;;;;;5002279;28;20469;-78
2020/12/27 03:07:24;;;;;;;1.63;1.30;;;4.70;98.20;;;;;;4999106;28;20508;-79
2020/12/27 03:09:50;;;;;;;1.63;1.30;;;4.70;98.20;;;;;;5003934;28;20470;-79
2020/12/27 03:12:17;;;;;;;2.27;2.07;;;4.70;98.20;;;;;;5002723;28;20552;-79
2020/12/27 03:14:44;;;;;;;1.60;1.30;;;4.80;98.20;;;;;;5002170;28;20753;-78
2020/12/27 03:17:10;;;;;;;1.60;1.30;;;4.70;98.20;;;;;;4995885;28;20489;-78
2020/12/27 03:19:37;;;;;;;1.70;1.53;;;4.80;98.20;;;;;;5002237;28;20472;-78
2020/12/27 03:22:03;;;;;;;1.67;1.33;;;4.80;98.20;;;;;;5001493;28;20486;-78
2020/12/27 03:24:30;;;;;;;1.60;1.30;;;4.80;98.20;;;;;;5004734;28;21015;-78
2020/12/27 03:26:56;;;;;;;1.60;1.40;;;4.70;98.20;;;;;;4997828;28;20529;-78
2020/12/27 03:29:23;;;;;;;1.67;1.30;;;4.70;98.20;;;;;;4998983;28;20472;-79
2020/12/27 03:31:50;;;;;;;1.60;1.40;;;4.80;98.20;;;;;;5002398;28;20453;-77
2020/12/27 03:34:16;;;;;;;1.60;1.20;;;4.80;98.20;;;;;;5002610;28;20949;-78
2020/12/27 03:36:43;;;;;;;1.63;1.37;;;4.70;98.20;;;;;;4999492;28;20480;-78
2020/12/27 03:39:10;;;;;;;1.60;1.30;;;4.80;98.20;;;;;;5002021;28;20505;-78
2020/12/27 03:41:36;;;;;;;1.60;1.30;;;4.80;98.20;;;;;;5003537;28;20489;-78
2020/12/27 03:44:02;;;;;;;1.70;1.40;;;4.80;98.20;;;;;;5003122;28;20488;-78
2020/12/27 03:46:29;;;;;;;1.70;1.43;;;4.80;98.20;;;;;;5002448;28;20466;-78
2020/12/27 03:48:56;;;;;;;1.60;1.20;;;4.80;98.20;;;;;;5002770;28;20493;-78
2020/12/27 03:51:23;;;;;;;1.67;1.40;;;4.80;98.20;;;;;;5004540;28;20822;-78
2020/12/27 03:53:49;;;;;;;1.63;1.30;;;4.80;98.20;;;;;;5001424;28;20498;-79
2020/12/27 03:56:16;;;;;;;1.67;1.33;;;4.90;98.20;;;;;;4993933;28;20771;-78
2020/12/27 03:58:42;;;;;;;1.60;1.37;;;4.90;98.20;;;;;;4986348;28;20473;-78
2020/12/27 04:01:09;;;;;;;1.60;1.30;;;4.90;98.20;;;;;;5005253;28;20496;-77
2020/12/27 04:03:35;;;;;;;1.70;1.40;;;4.90;98.20;;;;;;5005066;28;20481;-78
2020/12/27 04:06:02;;;;;;;1.60;1.40;;;4.90;98.20;;;;;;5003647;28;20462;-77
2020/12/27 04:08:30;;;;;;;1.60;1.20;;;4.90;98.20;;;;;;5003926;28;20458;-77
2020/12/27 04:10:56;;;;;;;1.60;1.30;;;4.90;98.20;;;;;;5002206;28;20468;-78
2020/12/27 04:13:23;;;;;;;1.60;1.40;;;4.90;98.20;;;;;;4997852;28;20567;-78
2020/12/27 04:15:49;;;;;;;1.60;1.30;;;4.90;98.20;;;;;;5003583;28;20457;-78
2020/12/27 04:18:16;;;;;;;1.63;1.30;;;4.90;98.20;;;;;;4999925;28;20465;-79
2020/12/27 04:20:42;;;;;;;1.60;1.30;;;4.90;98.20;;;;;;4982144;28;20679;-78
2020/12/27 04:23:10;;;;;;;1.63;1.37;;;4.90;98.20;;;;;;4996807;28;20541;-78
2020/12/27 04:25:36;;;;;;;1.60;1.30;;;4.90;98.20;;;;;;5001288;28;20466;-77
2020/12/27 04:28:02;;;;;;;1.67;1.30;;;4.90;98.20;;;;;;5004765;28;20485;-78
2020/12/27 04:30:29;;;;;;;1.60;1.30;;;4.90;98.20;;;;;;4984945;28;20470;-78
2020/12/27 04:32:55;;;;;;;1.70;1.40;;;4.90;98.20;;;;;;4996481;28;20501;-78
2020/12/27 04:35:22;;;;;;;1.63;1.40;;;4.90;98.20;;;;;;5001517;28;20464;-77
2020/12/27 04:37:48;;;;;;;1.63;1.40;;;4.90;98.20;;;;;;5000532;28;20477;-78
2020/12/27 04:40:16;;;;;;;1.60;1.30;;;4.90;98.20;;;;;;5002806;28;20466;-78
2020/12/27 04:42:42;;;;;;;1.60;1.30;;;4.80;98.20;;;;;;5002699;28;20458;-77
2020/12/27 04:45:09;;;;;;;1.60;1.30;;;4.80;98.20;;;;;;5000163;28;20461;-79
2020/12/27 04:47:36;;;;;;;1.60;1.30;;;4.80;98.20;;;;;;5001433;28;20557;-77
2020/12/27 04:50:04;;;;;;;1.60;1.30;;;4.80;98.20;;;;;;5002961;28;20485;-79
2020/12/27 04:52:33;;;;;;;1.60;1.30;;;4.80;98.20;;;;;;5003526;28;20466;-77
2020/12/27 04:55:00;;;;;;;1.60;1.33;;;4.80;98.20;;;;;;5016108;23;20497;-77
2020/12/27 04:57:29;;;;;;;1.60;1.30;;;4.80;98.20;;;;;;4989011;28;20493;-77
2020/12/27 04:59:56;;;;;;;1.60;1.30;;;4.80;98.20;;;;;;5000094;28;20548;-78
2020/12/27 05:02:23;;;;;;;1.70;1.40;;;4.80;98.20;;;;;;4999521;28;20494;-78
2020/12/27 05:04:49;;;;;;;1.60;1.40;;;4.70;98.20;;;;;;4998488;28;20671;-79
2020/12/27 05:07:20;;;;;;;1.60;1.30;;;4.70;98.20;;;;;;4993994;28;20972;-78
2020/12/27 05:09:49;;;;;;;1.63;1.40;;;4.70;98.20;;;;;;5001062;28;20603;-78
2020/12/27 05:12:17;;;;;;;1.60;1.30;;;4.70;98.20;;;;;;4992028;28;20887;-78
2020/12/27 05:14:45;;;;;;;1.60;1.30;;;4.70;98.20;;;;;;5001397;28;20521;-78
2020/12/27 05:17:14;;;;;;;1.67;1.40;;;4.70;98.20;;;;;;4996504;28;20959;-77
2020/12/27 05:19:41;;;;;;;1.60;1.30;;;4.70;98.20;;;;;;5002547;28;20487;-77
2020/12/27 05:22:08;;;;;;;1.60;1.30;;;4.70;98.20;;;;;;4994040;28;20580;-77
2020/12/27 05:24:37;;;;;;;1.60;1.30;;;4.70;98.20;;;;;;4998209;28;20588;-78
2020/12/27 05:27:05;;;;;;;1.70;1.40;;;4.70;98.20;;;;;;4999280;28;20476;-77
2020/12/27 05:29:34;;;;;;;1.70;1.40;;;4.70;98.20;;;;;;4993035;28;20477;-79
2020/12/27 05:32:02;;;;;;;1.70;1.40;;;4.70;98.20;;;;;;4997565;28;20552;-78
2020/12/27 05:34:29;;;;;;;1.60;1.30;;;4.70;98.20;;;;;;4994417;28;20908;-79
2020/12/27 05:36:58;;;;;;;1.60;1.33;;;4.70;98.20;;;;;;4996600;28;20457;-77
2020/12/27 05:39:26;;;;;;;1.60;1.33;;;4.70;98.20;;;;;;5002496;28;20479;-79
2020/12/27 05:41:57;;;;;;;1.70;1.40;;;4.70;98.20;;;;;;4991314;28;20615;-77
2020/12/27 05:44:23;;;;;;;1.60;1.30;;;4.70;98.20;;;;;;4999051;28;20512;-79
2020/12/27 05:46:52;;;;;;;1.67;1.40;;;4.70;98.20;;;;;;5003061;28;20461;-79
2020/12/27 05:49:19;;;;;;;1.63;1.40;;;4.70;98.20;;;;;;5009788;28;20519;-77
2020/12/27 05:51:52;;;;;;;1.63;1.40;;;4.70;98.20;;;;;;5002801;28;20460;-79
2020/12/27 05:54:29;;;;;;;1.60;1.30;;;4.80;98.20;;;;;;5005744;28;20520;-77
2020/12/27 05:56:57;;;;;;;1.60;1.30;;;4.80;98.20;;;;;;4991419;28;20497;-77
2020/12/27 05:59:28;;;;;;;1.70;1.40;;;4.80;98.20;;;;;;4993493;28;21006;-78
2020/12/27 06:01:56;;;;;;;1.60;1.30;;;4.80;98.20;;;;;;4999611;28;20493;-78
2020/12/27 06:05:02;;;;;;;1.60;1.30;;;4.80;98.20;;;;;;4991844;28;20513;-78
2020/12/27 06:07:40;;;;;;;1.60;1.40;;;4.80;98.20;;;;;;4988441;28;20501;-78
2020/12/27 06:10:11;;;;;;;1.70;1.40;;;4.80;98.20;;;;;;4999074;28;20551;-78
2020/12/27 06:13:35;;;;;;;1.70;1.40;;;4.80;98.20;;;;;;4998386;28;20853;-78
2020/12/27 06:16:10;;;;;;;1.60;1.30;;;4.80;98.20;;;;;;4971770;28;20494;-79
2020/12/27 06:18:40;;;;;;;1.60;1.30;;;4.80;98.20;;;;;;4995191;28;20544;-79
2020/12/27 06:21:09;;;;;;;1.60;1.30;;;4.80;98.20;;;;;;4998760;28;20488;-79
2020/12/27 06:23:36;;;;;;;1.60;1.30;;;4.90;98.20;;;;;;4999395;28;20520;-79
2020/12/27 06:26:04;;;;;;;1.70;1.37;;;4.90;98.20;;;;;;4998117;28;20503;-78
2020/12/27 06:28:31;;;;;;;1.70;1.50;;;4.90;98.20;;;;;;4994414;28;20894;-79
2020/12/27 06:30:59;;;;;;;1.70;1.40;;;4.90;98.20;;;;;;4992940;28;20586;-78
2020/12/27 06:33:32;;;;;;;1.63;1.30;;;4.90;98.20;;;;;;5004410;28;21014;-78
2020/12/27 06:35:58;;;;;;;1.60;1.30;;;4.90;98.20;;;;;;4991599;28;20508;-78
2020/12/27 06:38:26;;;;;;;1.60;1.30;;;4.90;98.20;;;;;;4995834;28;20894;-80
2020/12/27 06:40:58;;;;;;;1.60;1.30;;;4.90;98.20;;;;;;4992926;28;20527;-78
2020/12/27 06:43:25;;;;;;;1.60;1.30;;;4.90;98.20;;;;;;5003138;28;20496;-79
2020/12/27 06:45:52;;;;;;;1.60;1.30;;;4.90;98.20;;;;;;4990607;28;21251;-79
2020/12/27 06:48:33;;;;;;;1.63;1.30;;;5.00;98.20;;;;;;4995833;28;20572;-80
2020/12/27 06:50:59;;;;;;;1.60;1.30;;;5.00;98.20;;;;;;4997216;28;20493;-79
2020/12/27 06:53:40;;;;;;;1.70;1.50;;;5.00;98.20;;;;;;4998754;28;20528;-80
2020/12/27 06:56:08;;;;;;;1.63;1.30;;;5.00;98.20;;;;;;4994731;28;20489;-79
2020/12/27 06:58:35;;;;;;;1.70;1.40;;;5.00;98.20;;;;;;4993476;28;20500;-78
2020/12/27 07:01:13;;;;;;;1.67;1.40;;;5.00;98.20;;;;;;4998102;28;20530;-78
2020/12/27 07:03:40;;;;;;;1.70;1.40;;;5.00;98.20;;;;;;4984960;28;20609;-79
2020/12/27 07:06:18;;;;;;;1.67;1.43;;;5.00;98.20;;;;;;4993631;28;20488;-79
2020/12/27 07:08:45;;;;;;;1.60;1.30;;;5.00;98.20;;;;;;4992416;28;20991;-79
2020/12/27 07:11:16;;;;;;;1.60;1.30;;;5.00;98.20;;;;;;4997958;28;20541;-79
2020/12/27 07:13:45;;;;;;;1.63;1.30;;;5.00;98.20;;;;;;4990561;28;20934;-79
2020/12/27 07:16:13;;;;;;;1.60;1.30;;;5.00;98.20;;;;;;4997191;28;20468;-77
2020/12/27 07:18:39;;;;;;;1.60;1.30;;;5.00;98.20;;;;;;4999618;28;20501;-77
2020/12/27 07:21:14;;;;;;;1.60;1.30;;;5.00;98.20;;;;;;4996750;28;20512;-78
2020/12/27 07:23:48;;;;;;;1.60;1.40;;;5.10;98.20;;;;;;4994167;28;20536;-78
2020/12/27 07:26:15;;;;;;;1.70;1.50;;;5.10;98.20;;;;;;4996145;28;20837;-78
2020/12/27 07:28:45;;;;;;;1.60;1.40;;;5.10;98.20;;;;;;5005446;28;20461;-78
2020/12/27 07:31:18;;;;;;;1.60;1.40;;;5.10;98.20;;;;;;4998592;28;20465;-79
2020/12/27 07:33:46;;;;;;;1.60;1.30;;;5.10;98.20;;;;;;4992637;28;20481;-77
2020/12/27 07:36:12;;;;;;;1.60;1.30;;;5.10;98.20;;;;;;4991965;28;20826;-79
2020/12/27 07:38:59;;;;;;;1.60;1.30;;;5.10;98.20;;;;;;4995013;28;20497;-78
2020/12/27 07:41:27;;;;;;;1.60;1.30;;;5.10;98.20;;;;;;4989382;28;20849;-79
2020/12/27 07:43:54;;;;;;;1.60;1.30;;;5.10;98.20;;;;;;4998501;28;21218;-77
2020/12/27 07:46:22;;;;;;;1.60;1.30;;;5.10;98.20;;;;;;4997185;28;20474;-78
2020/12/27 07:48:49;;;;;;;1.60;1.27;;;5.10;98.20;;;;;;4993084;28;20488;-78
2020/12/27 07:51:16;;;;;;;1.60;1.30;;;5.10;98.20;;;;;;4990442;28;20552;-77
2020/12/27 07:53:48;;;;;;;1.60;1.30;;;5.20;98.20;;;;;;5001616;28;20576;-78
2020/12/27 07:56:16;;;;;;;1.60;1.30;;;5.20;98.20;;;;;;4993461;28;20496;-77
2020/12/27 07:58:49;;;;;;;1.60;1.30;;;5.20;98.20;;;;;;4991393;28;20469;-79
2020/12/27 08:01:22;;;;;;;1.70;1.40;;;5.20;98.20;;;;;;4995140;28;20923;-78
2020/12/27 08:03:57;;;;;;;1.70;1.50;;;5.20;98.20;;;;;;4993482;28;21214;-79
2020/12/27 08:06:24;;;;;;;1.70;1.40;;;5.20;98.20;;;;;;4993444;28;20503;-78
2020/12/27 08:09:01;;;;;;;1.60;1.30;;;5.30;98.20;;;;;;4999393;28;20507;-78
2020/12/27 08:11:28;;;;;;;1.60;1.40;;;5.20;98.20;;;;;;4998020;28;20516;-78
2020/12/27 08:13:57;;;;;;;1.60;1.40;;;5.30;98.20;;;;;;5006373;28;20542;-79
2020/12/27 08:16:24;;;;;;;1.60;1.30;;;5.30;98.20;;;;;;5005402;28;20529;-78
2020/12/27 08:19:06;;;;;;;1.70;1.40;;;5.30;98.20;;;;;;4996856;28;20496;-78
2020/12/27 08:21:34;;;;;;;1.67;1.40;;;5.30;98.20;;;;;;4994030;28;20556;-78
2020/12/27 08:24:03;;;;;;;1.60;1.30;;;5.30;98.20;;;;;;5006469;28;20631;-77
2020/12/27 08:26:31;;;;;;;1.60;1.30;;;5.40;98.20;;;;;;4999501;28;20497;-76
2020/12/27 08:29:14;;;;;;;1.60;1.30;;;5.40;98.20;;;;;;4997281;28;20940;-78
2020/12/27 08:31:41;;;;;;;1.70;1.40;;;5.40;98.20;;;;;;5002161;28;20475;-79
2020/12/27 08:34:12;;;;;;;1.60;1.30;;;5.40;98.20;;;;;;5011583;28;21049;-79
2020/12/27 08:36:40;;;;;;;1.63;1.33;;;5.40;98.20;;;;;;4996803;28;20497;-78
2020/12/27 08:39:21;;;;;;;1.60;1.40;;;5.40;98.20;;;;;;4993995;28;20497;-79
2020/12/27 08:41:58;;;;;;;1.63;1.33;;;5.40;98.20;;;;;;4994639;28;20571;-79
2020/12/27 08:44:46;;;;;;;1.67;1.40;;;5.40;98.20;;;;;;4992626;28;20555;-78
2020/12/27 08:47:24;;;;;;;1.60;1.20;;;5.40;98.20;;;;;;5001807;28;20623;-79
2020/12/27 08:50:00;;;;;;;1.60;1.40;;;5.40;98.20;;;;;;4995847;28;20488;-78
2020/12/27 08:52:26;;;;;;;1.60;1.30;;;5.50;98.20;;;;;;4996919;28;20959;-78
2020/12/27 08:54:59;;;;;;;1.60;1.30;;;5.50;98.20;;;;;;5001469;28;20959;-77
2020/12/27 08:57:26;;;;;;;1.63;1.40;;;5.50;98.20;;;;;;4995919;28;20476;-77
2020/12/27 09:00:05;;;;;;;1.70;1.40;;;5.50;98.20;;;;;;4994485;28;20509;-78
2020/12/27 09:02:32;;;;;;;1.60;1.30;;;5.50;98.20;;;;;;4990685;28;20525;-80
2020/12/27 09:05:07;;;;;;;1.60;1.20;;;5.50;98.20;;;;;;4999860;28;20481;-78
2020/12/27 09:07:35;;;;;;;1.60;1.30;;;5.50;98.20;;;;;;5003510;28;20491;-78
2020/12/27 09:10:08;;;;;;;1.60;1.30;;;5.50;98.20;;;;;;5002877;28;20544;-78
2020/12/27 09:12:35;;;;;;;1.60;1.30;;;5.50;98.20;;;;;;5001305;28;20461;-78
2020/12/27 09:15:20;;;;;;;1.60;1.30;;;5.50;98.20;;;;;;4998215;28;20855;-77
2020/12/27 09:17:53;;;;;;;1.67;1.40;;;5.50;98.20;;;;;;4990328;28;20517;-79
2020/12/27 09:20:21;;;;;;;1.60;1.30;;;5.50;98.20;;;;;;4993281;28;20906;-79
2020/12/27 09:22:47;;;;;;;1.60;1.30;;;5.50;98.20;;;;;;5000495;28;20516;-78
2020/12/27 09:25:17;;;;;;;1.70;1.40;;;5.50;98.20;;;;;;5002163;28;20610;-77
2020/12/27 09:27:43;;;;;;;1.60;1.30;;;5.50;98.20;;;;;;4993865;28;20520;-79
2020/12/27 09:30:14;;;;;;;1.63;1.40;;;5.50;98.20;;;;;;4997836;28;20540;-79
2020/12/27 09:32:40;;;;;;;1.60;1.23;;;5.50;98.20;;;;;;4993062;28;20492;-78
2020/12/27 09:35:07;;;;;;;1.63;1.30;;;5.50;98.20;;;;;;4992234;28;20629;-79
2020/12/27 09:37:34;;;;;;;1.63;1.30;;;5.50;98.20;;;;;;4996525;28;20493;-79
2020/12/27 09:40:03;;;;;;;1.60;1.30;;;5.50;98.20;;;;;;4993692;28;20461;-78
2020/12/27 09:42:33;;;;;;;1.60;1.30;;;5.50;98.20;;;;;;4996570;28;20641;-77
2020/12/27 09:45:20;;;;;;;1.60;1.30;;;5.40;98.20;;;;;;4995936;28;20500;-77
2020/12/27 09:47:52;;;;;;;1.60;1.30;;;5.40;98.20;;;;;;4996201;28;20568;-76
2020/12/27 09:50:29;;;;;;;1.60;1.30;;;5.40;98.20;;;;;;4995029;28;20845;-79
2020/12/27 09:52:59;;;;;;;1.60;1.23;;;5.50;98.20;;;;;;4996476;28;20593;-78
2020/12/27 09:55:30;;;;;;;1.70;1.40;;;5.50;98.20;;;;;;5003113;28;20479;-76
2020/12/27 09:57:58;;;;;;;1.60;1.30;;;5.50;98.20;;;;;;5004854;28;20548;-81
2020/12/27 10:00:30;;;;;;;1.60;1.30;;;5.50;98.20;;;;;;5003072;28;20555;-78
2020/12/27 10:02:59;;;;;;;1.63;1.40;;;5.50;98.20;;;;;;5005287;28;20545;-78
2020/12/27 10:05:25;;;;;;;1.60;1.20;;;5.50;98.20;;;;;;5000976;28;20508;-79
2020/12/27 10:07:53;;;;;;;1.60;1.30;;;5.50;98.20;;;;;;4999288;28;20469;-78
2020/12/27 10:10:25;;;;;;;1.63;1.30;;;5.40;98.20;;;;;;5006051;28;20476;-78
2020/12/27 10:12:52;;;;;;;1.63;1.37;;;5.50;98.20;;;;;;5015379;28;20843;-79
2020/12/27 10:15:21;;;;;;;1.60;1.30;;;5.50;98.20;;;;;;4999020;28;20492;-79
2020/12/27 10:17:48;;;;;;;1.60;1.30;;;5.50;98.20;;;;;;4993732;28;21014;-76
2020/12/27 10:20:22;;;;;;;1.60;1.30;;;5.50;98.20;;;;;;5004068;28;20626;-76
2020/12/27 10:22:49;;;;;;;1.60;1.30;;;5.50;98.20;;;;;;4996743;28;20580;-77
2020/12/27 10:25:20;;;;;;;2.53;2.33;;;5.50;98.20;;;;;;4998655;28;20515;-79
2020/12/27 10:27:46;;;;;;;1.60;1.30;;;5.50;98.20;;;;;;5000011;28;20542;-79
2020/12/27 10:30:12;;;;;;;1.60;1.40;;;5.50;98.20;;;;;;4995802;28;20468;-79
2020/12/27 10:32:40;;;;;;;1.60;1.23;;;5.50;98.20;;;;;;4987013;28;20493;-77
2020/12/27 10:35:06;;;;;;;1.60;1.30;;;5.50;98.20;;;;;;4976381;28;20529;-77
2020/12/27 10:37:35;;;;;;;1.60;1.20;;;5.50;98.20;;;;;;4984761;28;20568;-77
2020/12/27 10:40:02;;;;;;;1.60;1.30;;;5.60;98.20;;;;;;4985500;28;20523;-77
2020/12/27 10:42:28;;;;;;;1.60;1.30;;;5.60;98.20;;;;;;4984969;28;20573;-78
2020/12/27 10:44:55;;;;;;;1.60;1.30;;;5.60;98.20;;;;;;4987052;28;20528;-78
2020/12/27 10:47:21;;;;;;;1.60;1.30;;;5.60;98.20;;;;;;4993086;28;20471;-76
2020/12/27 10:49:48;;;;;;;1.60;1.30;;;5.60;98.20;;;;;;4983946;28;20470;-77
2020/12/27 10:52:15;;;;;;;1.60;1.30;;;5.60;98.20;;;;;;4989275;28;20500;-79
2020/12/27 10:54:41;;;;;;;1.60;1.30;;;5.60;98.20;;;;;;5019460;23;20497;-76
2020/12/27 10:57:08;;;;;;;1.67;1.43;;;5.60;98.20;;;;;;5000524;28;20563;-75
2020/12/27 10:59:35;;;;;;;1.60;1.30;;;5.60;98.20;;;;;;5000019;28;20509;-76
2020/12/27 11:02:01;;;;;;;1.60;1.30;;;5.60;98.20;;;;;;5004805;28;20498;-76
2020/12/27 11:04:28;;;;;;;1.60;1.30;;;5.70;98.20;;;;;;4995591;28;20489;-76
2020/12/27 11:06:55;;;;;;;1.70;1.40;;;5.70;98.20;;;;;;5010653;28;21179;-77
2020/12/27 11:09:21;;;;;;;1.60;1.20;;;5.70;98.20;;;;;;5003560;28;20820;-76
2020/12/27 11:11:48;;;;;;;1.60;1.30;;;5.70;98.20;;;;;;4996721;28;20469;-76
2020/12/27 11:14:14;;;;;;;1.60;1.40;;;5.70;98.20;;;;;;4995999;28;20653;-77
2020/12/27 11:16:41;;;;;;;1.60;1.30;;;5.80;98.20;;;;;;5000013;28;20449;-77
2020/12/27 11:19:07;;;;;;;1.60;1.30;;;5.80;98.20;;;;;;4999756;28;20467;-77
2020/12/27 11:21:33;;;;;;;1.67;1.30;;;5.80;98.10;;;;;;5001751;28;20489;-76
2020/12/27 11:24:01;;;;;;;1.60;1.30;;;5.80;97.90;;;;;;5007440;28;20494;-76
2020/12/27 11:26:27;;;;;;;1.60;1.20;;;5.90;97.80;;;;;;5006464;28;20484;-76
2020/12/27 11:28:54;;;;;;;1.60;1.20;;;5.90;97.50;;;;;;5010299;28;20445;-76
2020/12/27 11:31:20;;;;;;;1.70;1.50;;;5.90;97.50;;;;;;5009359;28;20496;-75
2020/12/27 11:33:48;;;;;;;1.60;1.30;;;5.90;97.40;;;;;;5003238;28;20453;-76
2020/12/27 11:36:15;;;;;;;1.60;1.30;;;6.00;97.40;;;;;;5005496;28;20492;-76
2020/12/27 11:38:41;;;;;;;1.60;1.30;;;6.00;97.40;;;;;;5005110;28;20468;-76
2020/12/27 11:41:12;;;;;;;1.60;1.30;;;6.00;97.30;;;;;;5006219;28;20519;-75
2020/12/27 11:43:38;;;;;;;1.60;1.30;;;6.00;97.30;;;;;;4998287;28;20477;-76
2020/12/27 11:46:04;;;;;;;1.63;1.30;;;6.00;96.90;;;;;;5007945;28;20473;-75
2020/12/27 11:48:31;;;;;;;1.60;1.30;;;6.10;96.80;;;;;;5009852;28;20929;-75
2020/12/27 11:50:57;;;;;;;1.60;1.20;;;6.10;97.00;;;;;;4999967;28;20476;-75
2020/12/27 11:53:24;;;;;;;1.60;1.30;;;6.10;96.90;;;;;;5006497;28;20462;-74
2020/12/27 11:55:51;;;;;;;1.60;1.30;;;6.10;96.70;;;;;;5007408;28;20465;-75
2020/12/27 11:58:18;;;;;;;1.63;1.20;;;6.20;96.80;;;;;;5007656;28;20441;-75
2020/12/27 12:00:44;;;;;;;1.63;1.30;;;6.20;96.60;;;;;;5000607;28;20469;-76
2020/12/27 12:03:11;;;;;;;1.60;1.30;;;6.20;96.60;;;;;;5006981;28;20453;-75
2020/12/27 12:05:37;;;;;;;1.60;1.30;;;6.20;96.50;;;;;;5005202;28;20477;-76
2020/12/27 12:08:04;;;;;;;1.60;1.30;;;6.20;96.70;;;;;;5007688;28;20479;-75
2020/12/27 12:10:31;;;;;;;1.60;1.30;;;6.20;96.60;;;;;;5003935;28;20457;-75
2020/12/27 12:12:57;;;;;;;1.60;1.20;;;6.20;96.70;;;;;;5000861;28;20472;-76
2020/12/27 12:15:27;;;;;;;1.60;1.30;;;6.20;96.40;;;;;;5009784;28;20485;-75
2020/12/27 12:17:53;;;;;;;1.60;1.40;;;6.20;96.60;;;;;;5011775;28;20467;-77
2020/12/27 12:23:04;;;;;;;1.70;1.40;;;6.20;96.60;;;;;;5007449;28;20592;-75
2020/12/27 12:25:31;;;;;;;1.60;1.30;;;6.20;96.50;;;;;;5001786;28;20492;-75
2020/12/27 12:27:57;;;;;;;1.70;1.40;;;6.20;96.60;;;;;;5006598;28;20454;-75
2020/12/27 12:30:24;;;;;;;1.60;1.20;;;6.20;96.80;;;;;;5006995;28;20449;-75
2020/12/27 12:32:51;;;;;;;1.63;1.30;;;6.20;96.60;;;;;;5000425;28;20454;-76
2020/12/27 12:35:17;;;;;;;1.60;1.30;;;6.20;96.80;;;;;;5003523;28;20485;-76
2020/12/27 12:37:44;;;;;;;1.60;1.30;;;6.20;96.90;;;;;;5006335;28;20724;-75
2020/12/27 12:40:12;;;;;;;1.60;1.20;;;6.20;96.80;;;;;;5009112;28;20445;-75
2020/12/27 12:42:39;;;;;;;1.67;1.40;;;6.20;96.90;;;;;;5010789;28;20516;-76
2020/12/27 12:45:06;;;;;;;1.60;1.30;;;6.20;96.80;;;;;;5004900;28;20474;-75
2020/12/27 12:47:34;;;;;;;1.60;1.27;;;6.20;96.90;;;;;;5002011;28;20595;-75
2020/12/27 12:50:01;;;;;;;1.60;1.30;;;6.20;97.40;;;;;;5000962;28;20481;-76
2020/12/27 12:52:27;;;;;;;1.60;1.30;;;6.20;97.40;;;;;;5004173;28;20454;-75
2020/12/27 12:54:57;;;;;;;1.60;1.30;;;6.10;97.20;;;;;;5005585;28;20497;-75
2020/12/27 12:57:23;;;;;;;1.67;1.30;;;6.10;97.40;;;;;;5006547;28;20500;-74
2020/12/27 12:59:50;;;;;;;1.60;1.30;;;6.10;97.40;;;;;;5001725;28;20465;-74
2020/12/27 13:02:17;;;;;;;1.63;1.30;;;6.10;97.40;;;;;;5000982;28;20761;-75
2020/12/27 13:04:44;;;;;;;1.60;1.30;;;6.10;97.80;;;;;;5001138;28;20493;-76
2020/12/27 13:07:10;;;;;;;1.60;1.20;;;6.10;98.20;;;;;;5001457;28;20465;-76